Flight Track Log - Related Links

Times and Time Zones

All times are in EDT time to prevent confusion due to time zone crossing. See the EGF4039 flight status page for this flight to view local times or setup timezone preferences in your user account.

Time Position Orientation Groundspeed Altitude Reporting Facility
EDT Latitude Longitude Course Direction KTS MPH feet Rate Location/Type
Thu 05:27:26 PM 42.6039 -92.4122 90° East 204 235 3,200  Level Chicago Center
Thu 05:28:28 PM 42.5947 -92.3253 98° East 246 283 5,600 2,226 Climbing Chicago Center
Thu 05:29:30 PM 42.5833 -92.2292 99° East 249 287 7,800 2,208 Climbing Chicago Center
Thu 05:30:33 PM 42.5733 -92.1281 98° East 262 302 10,200 1,824 Climbing Chicago Center
Thu 05:31:00 PM 42.4931 -91.7900 97° East  Level FlightAware Approximate
Thu 05:31:35 PM 42.5614 -92.0225 99° East 273 314 11,600  Level Chicago Center
Thu 05:32:00 PM 42.4833 -91.6687 90° East  Level FlightAware Approximate
Thu 05:32:37 PM 42.5442 -91.8744 99° East 324 373 12,800  Level Chicago Center
Thu 05:33:39 PM 42.5286 -91.7411 99° East 360 414 13,900 1,355 Climbing Chicago Center
Thu 05:34:41 PM 42.5131 -91.6056 99° East 371 427 15,600 2,129 Climbing Chicago Center
Thu 05:35:43 PM 42.4922 -91.4442 100° East 371 427 18,300 2,226 Climbing Chicago Center
Thu 05:36:45 PM 42.4775 -91.3161 99° East 355 409 20,200 1,597 Climbing Chicago Center
Thu 05:37:47 PM 42.4719 -91.1864 93° East 363 418 21,600 1,258 Climbing Chicago Center
Thu 05:38:49 PM 42.5339 -91.0753 53° Northeast 379 436 22,800 672 Climbing Chicago Center
Thu 05:39:52 PM 42.6008 -90.9650 50° Northeast 385 443 23,000 96 Climbing Chicago Center
Thu 05:40:54 PM 42.6592 -90.8175 62° Northeast 380 437 23,000  Level Chicago Center
Thu 05:41:56 PM 42.6511 -90.6725 94° East 387 445 23,000  Level Chicago Center
Thu 05:42:58 PM 42.6419 -90.5200 95° East 403 464 23,000  Level Chicago Center
Thu 05:44:00 PM 42.6325 -90.3656 95° East 413 475 23,000  Level Chicago Center
Thu 05:45:02 PM 42.5975 -90.1914 105° East 406 467 23,000 -145 Level Chicago Center
Thu 05:46:04 PM 42.5706 -90.0458 104° East 408 470 22,700 -677 Descending Chicago Center
Thu 05:47:06 PM 42.5694 -89.8736 90° East 415 478 21,600 -1,016 Descending Chicago Center
Thu 05:48:08 PM 42.5678 -89.7247 91° East 402 463 20,600 -1,258 Descending Chicago Center
Thu 05:49:10 PM 42.5653 -89.5783 91° East 393 452 19,000 -1,488 Descending Chicago Center
Thu 05:50:13 PM 42.5636 -89.4331 91° East 388 447 17,500 -1,392 Descending Chicago Center
Thu 05:51:15 PM 42.5442 -89.2925 101° East 379 436 16,100 -1,296 Descending Chicago Center
Thu 05:52:18 PM 42.5092 -89.1372 107° East 369 425 14,800 -1,113 Descending Chicago Center
Thu 05:53:19 PM 42.4803 -89.0075 107° East 362 417 13,800 -976 Descending Chicago Center
Thu 05:54:21 PM 42.4542 -88.8822 106° East 350 403 12,800 -1,161 Descending Chicago Center
Thu 05:55:23 PM 42.4281 -88.7583 106° East 345 397 11,400 -1,306 Descending Chicago Center
Thu 05:56:25 PM 42.4050 -88.6475 106° East 313 360 10,100 -1,113 Descending Chicago Center
Thu 05:57:27 PM 42.3800 -88.5286 106° East 288 331 9,100 -532 Descending Chicago Center
Thu 05:58:29 PM 42.3558 -88.4331 109° East 277 319 9,000 -532 Descending Chicago Center
Thu 05:59:31 PM 42.3283 -88.3400 112° Southeast 271 312 8,000 -919 Descending Chicago Center
Thu 06:00:33 PM 42.2878 -88.2697 128° Southeast 262 302 7,100 -480 Descending Chicago Center
Thu 06:01:36 PM 42.2250 -88.2000 141° Southeast 246 283 7,000 -480 Descending Chicago Center
Thu 06:02:38 PM 42.1800 -88.1464 139° Southeast 223 257 6,100 -871 Descending Chicago Center

Login

Don't have an account? Register now (free) for customized features, flight alerts, and more!